Time;durP1;ratioP1;P1;durP2;ratioP2;P2;SDS_P1;SDS_P2;PMS_P1;PMS_P2;Temp;Humidity;BMP_temperature;BMP_pressure;BME280_temperature;BME280_humidity;BME280_pressure;Samples;Min_cycle;Max_cycle;Signal;HPM_P1;HPM_P2
2023/05/20 00:01:59;;;;;;;;;;;;;;;18.64;60.40;99861.72;5093136;28;19912;-41
2023/05/20 00:04:24;;;;;;;;;;;;;;;18.58;60.69;99858.16;5093156;28;20005;-41
2023/05/20 00:06:50;;;;;;;;;;;;;;;18.25;62.17;99862.63;5092544;28;19934;-41
2023/05/20 00:09:16;;;;;;;;;;;;;;;18.36;61.93;99860.88;5092707;28;19919;-41
2023/05/20 00:11:41;;;;;;;;;;;;;;;18.33;62.48;99862.22;5092672;28;19939;-41
2023/05/20 00:14:06;;;;;;;;;;;;;;;18.23;62.87;99864.78;5092781;28;20608;-41
2023/05/20 00:16:32;;;;;;;;;;;;;;;17.59;64.53;99865.22;5092721;28;20387;-41
2023/05/20 00:18:57;;;;;;;;;;;;;;;17.90;63.80;99857.63;5093030;28;19912;-41
2023/05/20 00:21:22;;;;;;;;;;;;;;;18.04;63.07;99861.56;5092741;28;19919;-41
2023/05/20 00:23:48;;;;;;;;;;;;;;;18.21;62.88;99852.63;5093202;28;19946;-41
2023/05/20 00:26:13;;;;;;;;;;;;;;;18.38;61.61;99856.06;5093264;28;20367;-41
2023/05/20 00:28:38;;;;;;;;;;;;;;;18.18;61.72;99848.53;5092834;28;19935;-40
2023/05/20 00:31:03;;;;;;;;;;;;;;;18.19;61.68;99849.38;5092922;28;20340;-41
2023/05/20 00:33:29;;;;;;;;;;;;;;;18.49;60.86;99846.22;5092884;28;20041;-41
2023/05/20 00:35:54;;;;;;;;;;;;;;;18.57;60.36;99845.75;5092899;28;20364;-41
2023/05/20 00:38:19;;;;;;;;;;;;;;;18.45;60.46;99851.28;5092759;28;19912;-41
2023/05/20 00:40:45;;;;;;;;;;;;;;;18.28;61.30;99850.56;5092941;28;19912;-41
2023/05/20 00:43:10;;;;;;;;;;;;;;;18.31;61.19;99855.44;5092529;28;19995;-41
2023/05/20 00:45:36;;;;;;;;;;;;;;;18.44;60.74;99854.22;5092982;28;19916;-42
2023/05/20 00:48:02;;;;;;;;;;;;;;;18.43;60.93;99855.28;5092710;28;20347;-42
2023/05/20 00:50:28;;;;;;;;;;;;;;;18.25;61.26;99851.88;5091706;28;19912;-42
2023/05/20 00:52:54;;;;;;;;;;;;;;;18.24;61.76;99844.88;5092425;28;19926;-42
2023/05/20 00:55:20;;;;;;;;;;;;;;;18.34;61.34;99850.34;5092411;28;19930;-41
2023/05/20 00:57:45;;;;;;;;;;;;;;;18.10;62.33;99840.91;5092350;28;19912;-41
2023/05/20 01:00:10;;;;;;;;;;;;;;;18.10;62.38;99843.59;5090763;28;19912;-42
2023/05/20 01:02:36;;;;;;;;;;;;;;;18.06;62.67;99834.41;5092142;28;20041;-42
2023/05/20 01:05:02;;;;;;;;;;;;;;;17.28;65.14;99837.88;5092350;28;20002;-41
2023/05/20 01:07:27;;;;;;;;;;;;;;;17.34;65.78;99833.38;5092354;28;20550;-41
2023/05/20 01:09:54;;;;;;;;;;;;;;;17.17;67.00;99836.06;5092423;28;20261;-41
2023/05/20 01:12:22;;;;;;;;;;;;;;;17.08;67.44;99832.19;5091835;28;19923;-41
2023/05/20 01:14:49;;;;;;;;;;;;;;;17.01;67.81;99832.34;5092038;28;20034;-41
2023/05/20 01:17:16;;;;;;;;;;;;;;;17.39;67.25;99838.84;5092319;28;19916;-40
2023/05/20 01:19:42;;;;;;;;;;;;;;;17.73;65.56;99830.72;5092262;28;19934;-43
2023/05/20 01:22:11;;;;;;;;;;;;;;;17.81;65.19;99830.28;5092150;28;19970;-43
2023/05/20 01:24:38;;;;;;;;;;;;;;;17.81;64.71;99832.16;5092516;28;19947;-43
2023/05/20 01:27:04;;;;;;;;;;;;;;;18.07;64.30;99825.28;5092399;28;20374;-43
2023/05/20 01:29:31;;;;;;;;;;;;;;;18.07;64.37;99831.47;5091926;28;19916;-41
2023/05/20 01:31:58;;;;;;;;;;;;;;;17.73;65.03;99822.66;5092199;28;19947;-41
2023/05/20 01:34:24;;;;;;;;;;;;;;;17.72;64.70;99821.81;5091787;28;20010;-42
2023/05/20 01:36:49;;;;;;;;;;;;;;;16.94;67.34;99834.34;5091648;28;19943;-41
2023/05/20 01:39:16;;;;;;;;;;;;;;;16.73;68.52;99830.47;5091643;28;19916;-42
2023/05/20 01:41:42;;;;;;;;;;;;;;;16.51;69.64;99830.34;5091848;28;19912;-42
2023/05/20 01:44:08;;;;;;;;;;;;;;;16.09;70.91;99826.06;5091066;28;19970;-41
2023/05/20 01:46:34;;;;;;;;;;;;;;;16.23;71.61;99826.59;5091751;28;19916;-40
2023/05/20 01:48:59;;;;;;;;;;;;;;;16.22;70.34;99823.09;5091383;28;19919;-41
2023/05/20 01:51:24;;;;;;;;;;;;;;;15.98;70.94;99825.03;5091196;28;19993;-41
2023/05/20 01:53:50;;;;;;;;;;;;;;;15.63;74.19;99827.72;5091727;28;19912;-42
2023/05/20 01:56:15;;;;;;;;;;;;;;;15.56;73.58;99821.69;5091275;28;20328;-42
2023/05/20 01:58:40;;;;;;;;;;;;;;;15.79;73.77;99816.31;5091462;28;20636;-41
2023/05/20 02:01:06;;;;;;;;;;;;;;;15.67;73.38;99820.88;5091221;28;19919;-41
2023/05/20 02:03:31;;;;;;;;;;;;;;;16.06;72.82;99814.97;5091298;28;19920;-41
2023/05/20 02:05:56;;;;;;;;;;;;;;;16.56;70.38;99819.69;5091664;28;20269;-42
2023/05/20 02:08:21;;;;;;;;;;;;;;;16.33;71.23;99809.88;5091016;28;20361;-42
2023/05/20 02:10:47;;;;;;;;;;;;;;;16.31;71.28;99807.41;5091299;28;19994;-41
2023/05/20 02:13:13;;;;;;;;;;;;;;;16.42;70.24;99795.00;5091011;28;20066;-41
2023/05/20 02:15:40;;;;;;;;;;;;;;;16.65;69.91;99799.44;5091057;28;20088;-42
2023/05/20 02:18:07;;;;;;;;;;;;;;;16.57;69.86;99797.97;5090784;28;19920;-41
2023/05/20 02:20:34;;;;;;;;;;;;;;;16.42;70.14;99790.44;5091198;28;19912;-41
2023/05/20 02:23:00;;;;;;;;;;;;;;;15.85;72.74;99786.91;5090852;28;20285;-41
2023/05/20 02:25:25;;;;;;;;;;;;;;;15.89;72.75;99790.75;5090852;28;20011;-42
2023/05/20 02:27:50;;;;;;;;;;;;;;;15.88;71.81;99794.47;5090782;28;19934;-42
2023/05/20 02:30:16;;;;;;;;;;;;;;;16.00;71.20;99796.09;5091103;28;19912;-42
2023/05/20 02:32:42;;;;;;;;;;;;;;;15.98;71.83;99800.06;5090695;28;19944;-41
2023/05/20 02:35:07;;;;;;;;;;;;;;;15.90;71.88;99793.19;5091028;28;19912;-42
2023/05/20 02:37:33;;;;;;;;;;;;;;;15.97;71.78;99799.25;5090978;28;19912;-42
2023/05/20 02:39:58;;;;;;;;;;;;;;;15.85;71.15;99803.81;5090896;28;19919;-42
2023/05/20 02:42:23;;;;;;;;;;;;;;;15.94;71.63;99786.31;5090927;28;19916;-42
2023/05/20 02:44:49;;;;;;;;;;;;;;;16.17;70.35;99789.97;5090782;28;19912;-42
2023/05/20 02:47:14;;;;;;;;;;;;;;;15.92;70.79;99791.09;5090504;28;20033;-42
2023/05/20 02:49:40;;;;;;;;;;;;;;;16.10;69.92;99797.34;5091354;28;20114;-42
2023/05/20 02:52:05;;;;;;;;;;;;;;;16.37;68.88;99801.09;5091029;28;20287;-42
2023/05/20 02:54:31;;;;;;;;;;;;;;;16.56;68.46;99804.41;5090766;28;19931;-41
2023/05/20 02:56:56;;;;;;;;;;;;;;;16.24;68.21;99801.41;5090872;28;20360;-41
2023/05/20 02:59:21;;;;;;;;;;;;;;;16.04;68.94;99801.78;5090923;28;19912;-41
2023/05/20 03:01:47;;;;;;;;;;;;;;;15.91;70.31;99800.19;5090863;28;19919;-42
2023/05/20 03:04:12;;;;;;;;;;;;;;;15.96;69.28;99805.66;5090989;28;19969;-42
2023/05/20 03:06:37;;;;;;;;;;;;;;;15.83;69.93;99806.72;5090619;28;19912;-42
2023/05/20 03:09:02;;;;;;;;;;;;;;;16.24;68.80;99806.75;5090571;28;20309;-42
2023/05/20 03:11:28;;;;;;;;;;;;;;;16.20;68.93;99809.09;5090642;28;20364;-41
2023/05/20 03:13:53;;;;;;;;;;;;;;;16.03;68.81;99805.53;5091319;28;19923;-41
2023/05/20 03:16:18;;;;;;;;;;;;;;;15.20;72.30;99804.78;5094411;28;19958;-42
2023/05/20 03:18:45;;;;;;;;;;;;;;;15.19;72.76;99806.66;5093626;28;19959;-42
2023/05/20 03:21:10;;;;;;;;;;;;;;;15.52;71.21;99810.59;5074179;28;20015;-42
2023/05/20 03:23:35;;;;;;;;;;;;;;;15.86;69.80;99812.69;5073894;28;19955;-41
2023/05/20 03:26:02;;;;;;;;;;;;;;;16.07;68.51;99813.91;5080088;28;20338;-42
2023/05/20 03:28:27;;;;;;;;;;;;;;;16.26;68.68;99846.78;5094445;28;19999;-42
2023/05/20 03:30:52;;;;;;;;;;;;;;;16.32;67.98;99868.13;5094298;28;20347;-42
2023/05/20 03:33:17;;;;;;;;;;;;;;;15.81;69.15;99873.25;5094193;28;19916;-41
2023/05/20 03:35:43;;;;;;;;;;;;;;;15.79;69.86;99875.34;5094434;28;19912;-42
2023/05/20 03:38:08;;;;;;;;;;;;;;;16.08;68.79;99872.72;5094155;28;19912;-42
2023/05/20 03:40:33;;;;;;;;;;;;;;;16.60;67.13;99869.19;5094014;28;19916;-42
2023/05/20 03:42:59;;;;;;;;;;;;;;;16.92;66.49;99876.78;5093855;28;20295;-42
2023/05/20 03:45:24;;;;;;;;;;;;;;;17.19;65.17;99880.50;5093892;28;19920;-42
2023/05/20 03:47:50;;;;;;;;;;;;;;;16.87;64.95;99885.59;5093791;28;20288;-41
2023/05/20 03:50:15;;;;;;;;;;;;;;;16.94;66.27;99872.78;5092276;28;19919;-41
2023/05/20 03:52:41;;;;;;;;;;;;;;;17.17;65.57;99865.66;5093665;28;19916;-42
2023/05/20 03:55:06;;;;;;;;;;;;;;;17.61;64.75;99868.50;5093728;28;19926;-40
2023/05/20 03:57:32;;;;;;;;;;;;;;;18.02;63.46;99862.91;5093658;28;19919;-42
2023/05/20 03:59:58;;;;;;;;;;;;;;;18.40;62.33;99861.19;5093771;28;20221;-42
2023/05/20 04:02:23;;;;;;;;;;;;;;;18.61;61.13;99857.66;5093792;28;20006;-42
2023/05/20 04:04:51;;;;;;;;;;;;;;;18.56;61.50;99853.03;5093683;28;20425;-42
2023/05/20 04:07:17;;;;;;;;;;;;;;;18.57;61.23;99864.63;5093622;28;20407;-42
2023/05/20 04:09:42;;;;;;;;;;;;;;;18.75;60.56;99863.44;5093696;28;20020;-43
2023/05/20 04:12:07;;;;;;;;;;;;;;;18.76;59.90;99873.16;5093402;28;19916;-41
2023/05/20 04:14:33;;;;;;;;;;;;;;;18.73;59.89;99866.41;5093649;28;19913;-41
2023/05/20 04:17:00;;;;;;;;;;;;;;;19.09;59.41;99872.16;5093891;28;19912;-41
2023/05/20 04:19:27;;;;;;;;;;;;;;;18.89;59.36;99869.28;5093379;28;19919;-41
2023/05/20 04:21:52;;;;;;;;;;;;;;;19.24;58.93;99865.25;5093464;28;19916;-41
2023/05/20 04:24:17;;;;;;;;;;;;;;;19.56;58.66;99870.63;5093083;28;20015;-41
2023/05/20 04:26:43;;;;;;;;;;;;;;;20.08;57.26;99861.75;5093655;28;19912;-41
2023/05/20 04:29:08;;;;;;;;;;;;;;;20.74;56.06;99859.56;5092889;28;20003;-41
2023/05/20 04:31:33;;;;;;;;;;;;;;;21.06;54.31;99862.03;5093002;28;19996;-41
2023/05/20 04:33:59;;;;;;;;;;;;;;;21.40;52.89;99862.31;5092602;28;19923;-41
2023/05/20 04:36:27;;;;;;;;;;;;;;;21.51;52.35;99857.69;5092295;28;19916;-41
2023/05/20 04:38:56;;;;;;;;;;;;;;;21.73;51.28;99857.41;5091670;28;19916;-41
2023/05/20 04:41:21;;;;;;;;;;;;;;;21.60;51.46;99860.66;5092091;28;19912;-41
2023/05/20 04:43:46;;;;;;;;;;;;;;;21.42;51.31;99867.44;5091802;28;20011;-41
2023/05/20 04:46:12;;;;;;;;;;;;;;;21.77;50.47;99868.50;5091915;28;20359;-41
2023/05/20 04:48:38;;;;;;;;;;;;;;;21.63;50.69;99873.69;5092024;28;19912;-41
2023/05/20 04:51:03;;;;;;;;;;;;;;;22.30;49.98;99870.78;5092113;28;19916;-41
2023/05/20 04:53:32;;;;;;;;;;;;;;;22.32;48.79;99874.84;5092129;28;19922;-41
2023/05/20 04:55:58;;;;;;;;;;;;;;;22.51;48.82;99872.28;5090440;28;19924;-41
2023/05/20 04:58:23;;;;;;;;;;;;;;;22.93;47.39;99878.28;5089595;28;19942;-41
2023/05/20 05:00:50;;;;;;;;;;;;;;;23.58;45.87;99884.25;5078892;28;19920;-41
2023/05/20 05:03:15;;;;;;;;;;;;;;;24.14;44.73;99871.19;5090083;28;19955;-41
2023/05/20 05:05:41;;;;;;;;;;;;;;;24.73;43.17;99875.34;5092031;28;20013;-42
2023/05/20 05:08:07;;;;;;;;;;;;;;;25.10;42.43;99873.66;5091820;28;19912;-41
2023/05/20 05:10:32;;;;;;;;;;;;;;;25.60;41.61;99875.84;5091622;28;19942;-41
2023/05/20 05:12:57;;;;;;;;;;;;;;;25.93;40.11;99892.16;5091308;28;19917;-41
2023/05/20 05:15:23;;;;;;;;;;;;;;;26.12;39.73;99875.69;5091358;28;20276;-41
2023/05/20 05:17:49;;;;;;;;;;;;;;;26.24;39.50;99880.66;5091302;28;20014;-41
2023/05/20 05:20:14;;;;;;;;;;;;;;;26.71;38.82;99871.19;5091247;28;19926;-42
2023/05/20 05:22:40;;;;;;;;;;;;;;;26.85;38.40;99875.78;5091530;28;20010;-41
2023/05/20 05:25:09;;;;;;;;;;;;;;;27.02;38.12;99875.91;5092155;28;19972;-42
2023/05/20 05:27:34;;;;;;;;;;;;;;;27.57;36.70;99871.28;5089948;28;19923;-42
2023/05/20 05:30:01;;;;;;;;;;;;;;;27.38;37.37;99875.06;5087270;28;20402;-42
2023/05/20 05:32:26;;;;;;;;;;;;;;;27.95;35.17;99877.13;5093957;28;20383;-42
2023/05/20 05:34:53;;;;;;;;;;;;;;;28.36;34.88;99883.31;5093511;28;20303;-42
2023/05/20 05:37:19;;;;;;;;;;;;;;;28.58;34.97;99888.69;5092911;28;19912;-41
2023/05/20 05:39:44;;;;;;;;;;;;;;;28.90;34.43;99889.38;5091810;28;20022;-41
2023/05/20 05:42:10;;;;;;;;;;;;;;;28.56;35.02;99880.00;5091216;28;19916;-41
2023/05/20 05:44:35;;;;;;;;;;;;;;;29.06;34.54;99886.94;5090011;28;19916;-42
2023/05/20 05:47:00;;;;;;;;;;;;;;;29.37;33.76;99875.75;5102846;28;19935;-41
2023/05/20 05:49:25;;;;;;;;;;;;;;;29.69;33.48;99876.31;5091189;28;20001;-41
2023/05/20 05:51:51;;;;;;;;;;;;;;;30.12;32.97;99869.03;5091350;28;19916;-42
2023/05/20 05:54:16;;;;;;;;;;;;;;;30.32;32.50;99878.47;5090612;28;19912;-41
2023/05/20 05:56:41;;;;;;;;;;;;;;;30.64;32.06;99865.97;5090801;28;19924;-41
2023/05/20 05:59:07;;;;;;;;;;;;;;;30.49;32.56;99863.84;5090560;28;20364;-41
2023/05/20 06:01:32;;;;;;;;;;;;;;;30.50;32.20;99869.00;5088184;28;20033;-42
2023/05/20 06:03:57;;;;;;;;;;;;;;;30.66;32.09;99871.13;5090481;28;19911;-41
2023/05/20 06:06:23;;;;;;;;;;;;;;;30.07;32.11;99870.03;5089984;28;19923;-42
2023/05/20 06:08:48;;;;;;;;;;;;;;;31.16;30.95;99867.47;5090708;28;20376;-41
2023/05/20 06:11:13;;;;;;;;;;;;;;;31.61;30.07;99868.63;5090828;28;20007;-42
2023/05/20 06:13:38;;;;;;;;;;;;;;;31.60;30.02;99864.28;5090498;28;20382;-42
2023/05/20 06:16:04;;;;;;;;;;;;;;;32.29;28.97;99863.38;5090032;28;19923;-41
2023/05/20 06:18:29;;;;;;;;;;;;;;;32.75;28.85;99859.59;5088393;28;20063;-42
2023/05/20 06:20:58;;;;;;;;;;;;;;;33.10;28.45;99863.38;5088924;28;19912;-42
2023/05/20 06:23:24;;;;;;;;;;;;;;;33.32;27.57;99861.19;5086910;28;20368;-42
2023/05/20 06:25:49;;;;;;;;;;;;;;;33.37;27.57;99855.41;5087368;28;19922;-41
2023/05/20 06:28:15;;;;;;;;;;;;;;;33.73;27.03;99855.53;5087570;28;20022;-41
2023/05/20 06:30:40;;;;;;;;;;;;;;;33.48;26.89;99859.22;5088342;28;20006;-41
2023/05/20 06:33:06;;;;;;;;;;;;;;;33.77;26.17;99864.69;5088719;28;19999;-41
2023/05/20 06:35:33;;;;;;;;;;;;;;;32.67;27.51;99853.06;5089376;28;19955;-43
2023/05/20 06:37:59;;;;;;;;;;;;;;;33.02;27.31;99864.31;5089605;28;19912;-41
2023/05/20 06:40:26;;;;;;;;;;;;;;;32.33;27.29;99858.78;5089672;28;20287;-42
2023/05/20 06:42:51;;;;;;;;;;;;;;;31.87;28.17;99857.28;5089464;28;19916;-42
2023/05/20 06:45:16;;;;;;;;;;;;;;;31.17;28.74;99850.66;5089426;28;19926;-42
2023/05/20 06:47:42;;;;;;;;;;;;;;;31.67;28.35;99856.25;5089564;28;20146;-43
2023/05/20 06:50:07;;;;;;;;;;;;;;;32.51;27.42;99851.03;5092690;28;19919;-42
2023/05/20 06:52:32;;;;;;;;;;;;;;;31.63;28.24;99850.63;5093563;28;20015;-42
2023/05/20 06:54:58;;;;;;;;;;;;;;;32.37;27.71;99845.13;5093636;28;19919;-42
2023/05/20 06:57:23;;;;;;;;;;;;;;;32.55;27.54;99851.13;5093487;28;20010;-42
2023/05/20 06:59:48;;;;;;;;;;;;;;;32.25;27.77;99845.13;5093633;28;19912;-43
2023/05/20 07:02:13;;;;;;;;;;;;;;;32.64;27.43;99846.31;5093363;28;20008;-43
2023/05/20 07:04:39;;;;;;;;;;;;;;;33.52;27.22;99848.28;5093437;28;20003;-43
2023/05/20 07:07:04;;;;;;;;;;;;;;;34.06;26.13;99850.41;5093556;28;20285;-41
2023/05/20 07:09:30;;;;;;;;;;;;;;;34.19;25.80;99853.06;5094890;28;19920;-42
2023/05/20 07:11:55;;;;;;;;;;;;;;;35.01;24.94;99854.81;5094607;28;19916;-42
2023/05/20 07:14:20;;;;;;;;;;;;;;;34.75;24.98;99857.41;5094427;28;19916;-41
2023/05/20 07:16:45;;;;;;;;;;;;;;;33.13;26.49;99861.06;5094033;28;19982;-41
2023/05/20 07:19:11;;;;;;;;;;;;;;;33.69;25.10;99861.75;5093732;28;20372;-41
2023/05/20 07:21:36;;;;;;;;;;;;;;;34.69;24.46;99862.47;5093927;28;19935;-41
2023/05/20 07:24:01;;;;;;;;;;;;;;;34.81;24.49;99855.97;5093896;28;20311;-42
2023/05/20 07:26:27;;;;;;;;;;;;;;;35.57;23.54;99861.72;5093968;28;19912;-42
2023/05/20 07:28:52;;;;;;;;;;;;;;;35.75;23.17;99850.19;5093819;28;20004;-41
2023/05/20 07:31:17;;;;;;;;;;;;;;;35.29;24.18;99850.97;5094148;28;19962;-42
2023/05/20 07:33:42;;;;;;;;;;;;;;;35.62;23.04;99853.13;5093697;28;19935;-41
2023/05/20 07:36:08;;;;;;;;;;;;;;;36.04;22.88;99851.41;5093908;28;19951;-41
2023/05/20 07:38:33;;;;;;;;;;;;;;;36.83;22.12;99863.56;5093727;28;19924;-42
2023/05/20 07:40:59;;;;;;;;;;;;;;;37.08;22.00;99860.28;5093592;28;20014;-42
2023/05/20 07:43:24;;;;;;;;;;;;;;;37.38;21.97;99854.66;5092751;28;20061;-42
2023/05/20 07:45:49;;;;;;;;;;;;;;;36.59;22.17;99851.78;5093608;28;19912;-42
2023/05/20 07:48:15;;;;;;;;;;;;;;;36.87;21.74;99855.28;5092624;28;19920;-42
2023/05/20 07:50:40;;;;;;;;;;;;;;;35.94;22.42;99849.28;5093484;28;19999;-42
2023/05/20 07:53:05;;;;;;;;;;;;;;;36.53;22.33;99856.03;5093257;28;20028;-42
2023/05/20 07:55:34;;;;;;;;;;;;;;;36.54;22.87;99854.09;5093422;28;20341;-42
2023/05/20 07:58:00;;;;;;;;;;;;;;;36.61;22.22;99859.72;5093297;28;19934;-42
2023/05/20 08:00:25;;;;;;;;;;;;;;;36.74;21.97;99854.75;5092685;28;19912;-42
2023/05/20 08:02:51;;;;;;;;;;;;;;;36.78;21.91;99847.25;5092979;28;19965;-43
2023/05/20 08:05:16;;;;;;;;;;;;;;;36.31;22.21;99841.13;5092983;28;20007;-42
2023/05/20 08:07:41;;;;;;;;;;;;;;;36.58;21.45;99841.88;5093278;28;20376;-43
2023/05/20 08:10:07;;;;;;;;;;;;;;;36.30;21.67;99841.50;5092916;28;19923;-42
2023/05/20 08:12:32;;;;;;;;;;;;;;;35.90;22.66;99842.91;5093046;28;19916;-41
2023/05/20 08:14:57;;;;;;;;;;;;;;;36.00;22.42;99840.28;5093805;28;20015;-41
2023/05/20 08:17:23;;;;;;;;;;;;;;;35.68;20.95;99839.00;5093223;28;19919;-42
2023/05/20 08:19:48;;;;;;;;;;;;;;;34.52;22.36;99855.38;5093189;28;19969;-41
2023/05/20 08:22:13;;;;;;;;;;;;;;;32.91;23.35;99846.66;5093103;28;20357;-41
2023/05/20 08:24:39;;;;;;;;;;;;;;;31.93;25.57;99847.69;5093136;28;20420;-41
2023/05/20 08:27:04;;;;;;;;;;;;;;;32.23;24.95;99839.16;5093212;28;20022;-41
2023/05/20 08:29:29;;;;;;;;;;;;;;;32.14;25.96;99836.56;5092159;28;19947;-41
2023/05/20 08:31:55;;;;;;;;;;;;;;;31.97;25.90;99834.84;5092353;28;19916;-41
2023/05/20 08:34:21;;;;;;;;;;;;;;;32.13;25.25;99832.97;5092542;28;19998;-43
2023/05/20 08:36:46;;;;;;;;;;;;;;;32.07;25.71;99837.13;5092943;28;19912;-42
2023/05/20 08:39:11;;;;;;;;;;;;;;;31.61;26.38;99835.63;5092547;28;19918;-41
2023/05/20 08:41:37;;;;;;;;;;;;;;;32.06;25.58;99837.47;5092591;28;20410;-43
2023/05/20 08:44:04;;;;;;;;;;;;;;;30.68;27.78;99850.44;5092518;28;20315;-42
2023/05/20 08:46:30;;;;;;;;;;;;;;;30.16;29.10;99856.28;5092124;28;19944;-42
2023/05/20 08:48:55;;;;;;;;;;;;;;;30.45;28.06;99838.19;5092265;28;19916;-42
2023/05/20 08:51:22;;;;;;;;;;;;;;;30.92;27.96;99830.53;5092416;28;19912;-42
2023/05/20 08:53:47;;;;;;;;;;;;;;;30.40;28.63;99837.22;5092348;28;19912;-41
2023/05/20 08:56:13;;;;;;;;;;;;;;;30.47;28.45;99830.44;5092129;28;20432;-42
2023/05/20 08:58:39;;;;;;;;;;;;;;;30.79;27.74;99832.41;5091773;28;19916;-41
2023/05/20 09:01:05;;;;;;;;;;;;;;;29.32;29.47;99829.38;5092101;28;19926;-41
2023/05/20 09:03:31;;;;;;;;;;;;;;;28.80;30.28;99830.22;5092124;28;19912;-42
2023/05/20 09:06:03;;;;;;;;;;;;;;;29.09;30.16;99833.41;5091895;28;19912;-42
2023/05/20 09:08:29;;;;;;;;;;;;;;;27.55;32.70;99840.72;5091362;28;19912;-42
2023/05/20 09:10:55;;;;;;;;;;;;;;;28.47;30.99;99835.38;5091276;28;19923;-42
2023/05/20 09:13:20;;;;;;;;;;;;;;;27.67;32.02;99836.28;5090816;28;19917;-41
2023/05/20 09:15:45;;;;;;;;;;;;;;;27.01;33.67;99833.31;5091748;28;19912;-41
2023/05/20 09:18:11;;;;;;;;;;;;;;;26.82;34.46;99828.06;5091915;28;19919;-41
2023/05/20 09:20:36;;;;;;;;;;;;;;;27.68;33.19;99839.81;5092026;28;19916;-41
2023/05/20 09:23:03;;;;;;;;;;;;;;;27.50;33.38;99837.00;5092057;28;19912;-41
2023/05/20 09:25:28;;;;;;;;;;;;;;;27.02;34.64;99828.69;5091957;28;20002;-42
2023/05/20 09:27:54;;;;;;;;;;;;;;;27.56;34.35;99823.22;5091336;28;20014;-41
2023/05/20 09:30:20;;;;;;;;;;;;;;;27.32;34.28;99829.03;5091502;28;19934;-41
2023/05/20 09:32:51;;;;;;;;;;;;;;;26.40;36.07;99841.00;5091100;28;19938;-43
2023/05/20 09:35:18;;;;;;;;;;;;;;;25.77;37.15;99831.66;5091175;28;19912;-41
2023/05/20 09:37:45;;;;;;;;;;;;;;;26.33;36.92;99826.97;5091625;28;19918;-41
2023/05/20 09:40:12;;;;;;;;;;;;;;;26.26;37.63;99837.50;5091478;28;20281;-42
2023/05/20 09:42:49;;;;;;;;;;;;;;;26.25;37.79;99831.22;5091653;28;19922;-42
2023/05/20 09:45:14;;;;;;;;;;;;;;;26.53;37.67;99825.72;5091240;28;19974;-42
2023/05/20 09:48:07;;;;;;;;;;;;;;;26.73;35.31;99808.06;5091323;28;19919;-41
2023/05/20 09:50:33;;;;;;;;;;;;;;;27.16;34.64;99810.28;5091251;28;20226;-41
2023/05/20 09:53:01;;;;;;;;;;;;;;;27.34;35.22;99810.41;5090815;28;19922;-41
2023/05/20 09:55:26;;;;;;;;;;;;;;;26.19;36.57;99815.28;5091388;28;19934;-41
2023/05/20 09:57:53;;;;;;;;;;;;;;;26.42;37.25;99814.22;5091038;28;20387;-42
2023/05/20 10:00:18;;;;;;;;;;;;;;;26.08;37.44;99811.97;5090405;28;20006;-42
2023/05/20 10:02:45;;;;;;;;;;;;;;;25.92;38.25;99806.03;5090911;28;19951;-42
2023/05/20 10:05:15;;;;;;;;;;;;;;;26.23;37.59;99805.38;5090750;28;20007;-42
2023/05/20 10:07:59;;;;;;;;;;;;;;;26.88;36.59;99795.97;5091016;28;19912;-41
2023/05/20 10:10:27;;;;;;;;;;;;;;;26.26;37.21;99793.88;5090945;28;20358;-43
2023/05/20 10:12:58;;;;;;;;;;;;;;;26.07;37.52;99800.28;5090887;28;19924;-42
2023/05/20 10:15:24;;;;;;;;;;;;;;;26.70;37.27;99792.34;5090985;28;20311;-42
2023/05/20 10:17:56;;;;;;;;;;;;;;;27.13;35.92;99797.28;5090905;28;19947;-42
2023/05/20 10:20:21;;;;;;;;;;;;;;;27.56;35.64;99807.63;5090439;28;20370;-42
2023/05/20 10:22:59;;;;;;;;;;;;;;;26.76;36.54;99801.22;5090408;28;19912;-42
2023/05/20 10:25:27;;;;;;;;;;;;;;;26.60;36.79;99809.75;5090350;28;19962;-42
2023/05/20 10:28:08;;;;;;;;;;;;;;;26.70;36.78;99806.78;5090391;28;19928;-42
2023/05/20 10:30:34;;;;;;;;;;;;;;;26.25;34.42;99803.16;5090586;28;20309;-42
2023/05/20 10:33:03;;;;;;;;;;;;;;;25.60;34.38;99796.03;5090456;28;19916;-42
2023/05/20 10:35:29;;;;;;;;;;;;;;;26.23;33.65;99783.56;5091100;28;19912;-41
2023/05/20 10:38:06;;;;;;;;;;;;;;;26.55;32.84;99790.75;5090196;28;20392;-41
2023/05/20 10:40:31;;;;;;;;;;;;;;;26.10;33.29;99791.50;5090771;28;19935;-41
2023/05/20 10:43:07;;;;;;;;;;;;;;;25.29;34.73;99781.06;5090458;28;20368;-42
2023/05/20 10:45:36;;;;;;;;;;;;;;;25.75;35.03;99779.38;5090547;28;19923;-42
2023/05/20 10:48:01;;;;;;;;;;;;;;;25.39;36.07;99801.84;5090479;28;20375;-42
2023/05/20 10:50:26;;;;;;;;;;;;;;;24.67;38.16;99789.44;5090471;28;19918;-42
2023/05/20 10:52:52;;;;;;;;;;;;;;;23.91;39.70;99819.31;5090336;28;20451;-42
2023/05/20 10:55:18;;;;;;;;;;;;;;;23.88;40.01;99800.84;5090310;28;19919;-42
2023/05/20 10:57:44;;;;;;;;;;;;;;;23.91;40.00;99816.59;5090827;28;19912;-41
2023/05/20 11:00:10;;;;;;;;;;;;;;;24.28;39.42;99808.78;5091144;28;19916;-41
2023/05/20 11:02:36;;;;;;;;;;;;;;;23.99;40.57;99805.06;5094412;28;19923;-42
2023/05/20 11:05:02;;;;;;;;;;;;;;;24.14;40.43;99795.06;5105414;28;19912;-42
2023/05/20 11:07:28;;;;;;;;;;;;;;;24.48;39.47;99794.06;5098602;28;19947;-43
2023/05/20 11:09:57;;;;;;;;;;;;;;;24.31;39.03;99789.97;5097768;28;19955;-41
2023/05/20 11:12:23;;;;;;;;;;;;;;;24.68;38.97;99791.06;5105964;28;19916;-41
2023/05/20 11:14:49;;;;;;;;;;;;;;;25.45;37.70;99791.69;5093473;28;20393;-41
2023/05/20 11:17:15;;;;;;;;;;;;;;;25.43;36.66;99791.19;5103064;28;19953;-41
2023/05/20 11:19:40;;;;;;;;;;;;;;;26.18;36.11;99786.41;5090583;28;19920;-42
2023/05/20 11:22:08;;;;;;;;;;;;;;;26.51;35.90;99793.28;5089751;28;19935;-42
2023/05/20 11:24:34;;;;;;;;;;;;;;;25.78;37.35;99788.84;5090091;28;19914;-41
2023/05/20 11:27:00;;;;;;;;;;;;;;;26.03;36.46;99785.63;5090212;28;20344;-43
2023/05/20 11:29:27;;;;;;;;;;;;;;;26.10;36.58;99782.47;5089612;28;19920;-42
2023/05/20 11:31:53;;;;;;;;;;;;;;;25.84;37.15;99790.38;5089917;28;20338;-42
2023/05/20 11:34:20;;;;;;;;;;;;;;;24.81;38.60;99791.41;5090175;28;20449;-41
2023/05/20 11:36:45;;;;;;;;;;;;;;;24.37;40.22;99782.53;5093732;28;19998;-42
2023/05/20 11:39:12;;;;;;;;;;;;;;;24.63;39.75;99782.97;5097956;28;20034;-42
2023/05/20 11:41:37;;;;;;;;;;;;;;;24.55;38.23;99792.63;5106164;28;19920;-42
2023/05/20 11:44:04;;;;;;;;;;;;;;;24.40;38.28;99771.06;5081020;28;19912;-42
2023/05/20 11:46:29;;;;;;;;;;;;;;;25.05;37.68;99772.22;5090237;28;20354;-42
2023/05/20 11:48:55;;;;;;;;;;;;;;;25.42;37.89;99773.19;5091975;28;20601;-42
2023/05/20 11:51:25;;;;;;;;;;;;;;;25.14;37.03;99773.16;5092961;28;20315;-42
2023/05/20 11:53:51;;;;;;;;;;;;;;;25.74;35.36;99775.84;5092603;28;19923;-42
2023/05/20 11:56:16;;;;;;;;;;;;;;;25.90;34.48;99779.06;5092686;28;19916;-42
2023/05/20 11:58:42;;;;;;;;;;;;;;;26.07;34.84;99770.28;5092794;28;19919;-42
2023/05/20 12:01:08;;;;;;;;;;;;;;;25.11;35.81;99779.19;5092941;28;19924;-41
2023/05/20 12:03:33;;;;;;;;;;;;;;;24.83;36.21;99767.41;5092484;28;19920;-42
2023/05/20 12:06:02;;;;;;;;;;;;;;;25.30;35.24;99774.53;5092708;28;19916;-41
2023/05/20 12:08:27;;;;;;;;;;;;;;;25.20;35.53;99769.22;5092182;28;19912;-42
2023/05/20 12:10:52;;;;;;;;;;;;;;;24.88;35.59;99770.88;5092224;28;19919;-42
2023/05/20 12:13:18;;;;;;;;;;;;;;;24.53;36.42;99761.38;5092500;28;19989;-42
2023/05/20 12:15:43;;;;;;;;;;;;;;;24.50;35.56;99765.47;5092426;28;19922;-43
2023/05/20 12:18:08;;;;;;;;;;;;;;;24.91;34.71;99767.56;5092191;28;19958;-41
2023/05/20 12:20:35;;;;;;;;;;;;;;;25.17;34.18;99765.19;5092872;28;19919;-42
2023/05/20 12:23:01;;;;;;;;;;;;;;;25.21;34.42;99767.31;5091477;28;19916;-42
2023/05/20 12:25:26;;;;;;;;;;;;;;;24.75;35.66;99763.47;5091692;28;19941;-42
2023/05/20 12:27:51;;;;;;;;;;;;;;;24.95;35.32;99752.25;5090517;28;19924;-41
2023/05/20 12:30:19;;;;;;;;;;;;;;;25.31;35.31;99756.28;5090491;28;19912;-42
2023/05/20 12:32:45;;;;;;;;;;;;;;;25.46;35.29;99757.91;5090645;28;19981;-42
2023/05/20 12:35:10;;;;;;;;;;;;;;;25.87;34.46;99751.59;5091285;28;19912;-42
2023/05/20 12:37:40;;;;;;;;;;;;;;;26.18;34.44;99737.31;5091539;28;19916;-42
2023/05/20 12:40:07;;;;;;;;;;;;;;;26.43;34.61;99731.28;5091639;28;19964;-42
2023/05/20 12:42:39;;;;;;;;;;;;;;;26.61;34.44;99731.44;5091779;28;19912;-42